sensor_id;sensor_type;location;lat;lon;timestamp;P1;durP1;ratioP1;P2;durP2;ratioP2
62401;SDS011;48440;51.224;22.506;2024-03-23T00:56:04;34.17;;;23.10;;
62401;SDS011;48440;51.224;22.506;2024-03-23T00:58:30;38.13;;;24.17;;
62401;SDS011;48440;51.224;22.506;2024-03-23T01:00:55;38.47;;;24.17;;
62401;SDS011;48440;51.224;22.506;2024-03-23T01:03:21;34.75;;;22.20;;
62401;SDS011;48440;51.224;22.506;2024-03-23T01:05:46;38.42;;;23.92;;
62401;SDS011;48440;51.224;22.506;2024-03-23T01:08:13;37.83;;;23.08;;
62401;SDS011;48440;51.224;22.506;2024-03-23T01:10:39;42.13;;;24.90;;
62401;SDS011;48440;51.224;22.506;2024-03-23T01:13:05;39.15;;;24.85;;
62401;SDS011;48440;51.224;22.506;2024-03-23T01:15:30;39.67;;;24.65;;
62401;SDS011;48440;51.224;22.506;2024-03-23T01:17:55;36.03;;;22.90;;
62401;SDS011;48440;51.224;22.506;2024-03-23T01:20:21;42.55;;;25.15;;
62401;SDS011;48440;51.224;22.506;2024-03-23T01:22:46;42.08;;;24.73;;
62401;SDS011;48440;51.224;22.506;2024-03-23T01:25:12;38.88;;;24.27;;
62401;SDS011;48440;51.224;22.506;2024-03-23T01:27:37;41.72;;;24.38;;
62401;SDS011;48440;51.224;22.506;2024-03-23T01:30:03;41.70;;;23.48;;
62401;SDS011;48440;51.224;22.506;2024-03-23T01:32:29;37.92;;;23.25;;
62401;SDS011;48440;51.224;22.506;2024-03-23T01:34:54;39.60;;;24.40;;
62401;SDS011;48440;51.224;22.506;2024-03-23T01:37:22;39.40;;;23.92;;
62401;SDS011;48440;51.224;22.506;2024-03-23T01:39:48;40.30;;;25.13;;
62401;SDS011;48440;51.224;22.506;2024-03-23T01:42:13;35.83;;;23.77;;
62401;SDS011;48440;51.224;22.506;2024-03-23T01:44:39;37.85;;;23.63;;
62401;SDS011;48440;51.224;22.506;2024-03-23T01:47:06;39.08;;;23.40;;
62401;SDS011;48440;51.224;22.506;2024-03-23T01:49:32;42.58;;;25.52;;
62401;SDS011;48440;51.224;22.506;2024-03-23T01:51:58;42.70;;;24.48;;
62401;SDS011;48440;51.224;22.506;2024-03-23T01:54:24;42.67;;;24.13;;
62401;SDS011;48440;51.224;22.506;2024-03-23T01:56:50;37.25;;;22.90;;
62401;SDS011;48440;51.224;22.506;2024-03-23T01:59:16;36.58;;;23.00;;
62401;SDS011;48440;51.224;22.506;2024-03-23T02:01:41;39.35;;;23.35;;
62401;SDS011;48440;51.224;22.506;2024-03-23T02:04:07;37.70;;;23.50;;
62401;SDS011;48440;51.224;22.506;2024-03-23T02:06:34;38.63;;;22.63;;
62401;SDS011;48440;51.224;22.506;2024-03-23T02:08:59;41.78;;;23.67;;
62401;SDS011;48440;51.224;22.506;2024-03-23T02:11:25;38.65;;;23.08;;
62401;SDS011;48440;51.224;22.506;2024-03-23T02:13:51;38.03;;;23.42;;
62401;SDS011;48440;51.224;22.506;2024-03-23T02:16:16;37.53;;;22.60;;
62401;SDS011;48440;51.224;22.506;2024-03-23T02:18:41;41.10;;;24.25;;
62401;SDS011;48440;51.224;22.506;2024-03-23T02:21:07;35.08;;;22.17;;
62401;SDS011;48440;51.224;22.506;2024-03-23T02:23:32;39.22;;;23.85;;
62401;SDS011;48440;51.224;22.506;2024-03-23T02:25:58;36.40;;;22.90;;
62401;SDS011;48440;51.224;22.506;2024-03-23T02:28:24;38.22;;;22.88;;
62401;SDS011;48440;51.224;22.506;2024-03-23T02:30:49;37.67;;;22.65;;
62401;SDS011;48440;51.224;22.506;2024-03-23T02:33:15;34.42;;;21.67;;
62401;SDS011;48440;51.224;22.506;2024-03-23T02:35:41;40.05;;;23.27;;
62401;SDS011;48440;51.224;22.506;2024-03-23T02:38:07;37.20;;;23.23;;
62401;SDS011;48440;51.224;22.506;2024-03-23T02:40:32;38.47;;;24.35;;
62401;SDS011;48440;51.224;22.506;2024-03-23T02:42:58;42.40;;;25.08;;
62401;SDS011;48440;51.224;22.506;2024-03-23T02:45:23;38.03;;;23.67;;
62401;SDS011;48440;51.224;22.506;2024-03-23T02:47:49;33.80;;;22.10;;
62401;SDS011;48440;51.224;22.506;2024-03-23T02:50:18;36.47;;;22.80;;
62401;SDS011;48440;51.224;22.506;2024-03-23T02:52:44;39.83;;;24.33;;
62401;SDS011;48440;51.224;22.506;2024-03-23T02:55:10;39.58;;;24.00;;
62401;SDS011;48440;51.224;22.506;2024-03-23T02:57:35;39.63;;;23.85;;
62401;SDS011;48440;51.224;22.506;2024-03-23T03:00:01;42.80;;;24.90;;
62401;SDS011;48440;51.224;22.506;2024-03-23T03:02:26;41.67;;;25.20;;
62401;SDS011;48440;51.224;22.506;2024-03-23T03:04:52;40.42;;;24.85;;
62401;SDS011;48440;51.224;22.506;2024-03-23T03:07:17;41.85;;;24.80;;
62401;SDS011;48440;51.224;22.506;2024-03-23T03:09:43;42.83;;;23.92;;
62401;SDS011;48440;51.224;22.506;2024-03-23T03:12:08;40.55;;;24.70;;
62401;SDS011;48440;51.224;22.506;2024-03-23T03:14:34;38.75;;;24.83;;
62401;SDS011;48440;51.224;22.506;2024-03-23T03:17:00;43.20;;;26.17;;
62401;SDS011;48440;51.224;22.506;2024-03-23T03:19:26;41.88;;;26.17;;
62401;SDS011;48440;51.224;22.506;2024-03-23T03:21:52;46.22;;;26.75;;
62401;SDS011;48440;51.224;22.506;2024-03-23T03:24:18;46.30;;;26.83;;
62401;SDS011;48440;51.224;22.506;2024-03-23T03:26:44;46.35;;;28.63;;
62401;SDS011;48440;51.224;22.506;2024-03-23T03:29:09;42.55;;;27.15;;
62401;SDS011;48440;51.224;22.506;2024-03-23T03:31:36;43.15;;;26.23;;
62401;SDS011;48440;51.224;22.506;2024-03-23T03:34:02;48.72;;;28.92;;
62401;SDS011;48440;51.224;22.506;2024-03-23T03:36:27;48.15;;;28.60;;
62401;SDS011;48440;51.224;22.506;2024-03-23T03:38:53;50.63;;;28.48;;
62401;SDS011;48440;51.224;22.506;2024-03-23T03:41:19;44.72;;;27.65;;
62401;SDS011;48440;51.224;22.506;2024-03-23T03:43:44;45.90;;;27.98;;
62401;SDS011;48440;51.224;22.506;2024-03-23T03:46:09;44.45;;;27.40;;
62401;SDS011;48440;51.224;22.506;2024-03-23T03:48:36;46.17;;;28.40;;
62401;SDS011;48440;51.224;22.506;2024-03-23T03:51:01;48.60;;;28.38;;
62401;SDS011;48440;51.224;22.506;2024-03-23T03:53:27;50.17;;;28.45;;
62401;SDS011;48440;51.224;22.506;2024-03-23T03:55:53;44.13;;;26.35;;
62401;SDS011;48440;51.224;22.506;2024-03-23T03:58:18;48.13;;;28.23;;
62401;SDS011;48440;51.224;22.506;2024-03-23T04:00:44;49.38;;;27.95;;
62401;SDS011;48440;51.224;22.506;2024-03-23T04:03:10;46.47;;;27.35;;
62401;SDS011;48440;51.224;22.506;2024-03-23T04:05:35;49.53;;;27.70;;
62401;SDS011;48440;51.224;22.506;2024-03-23T04:08:01;48.00;;;27.92;;
62401;SDS011;48440;51.224;22.506;2024-03-23T04:10:26;48.35;;;28.45;;
62401;SDS011;48440;51.224;22.506;2024-03-23T04:12:52;46.17;;;27.15;;
62401;SDS011;48440;51.224;22.506;2024-03-23T04:15:19;50.28;;;29.13;;
62401;SDS011;48440;51.224;22.506;2024-03-23T04:17:45;46.35;;;27.98;;
62401;SDS011;48440;51.224;22.506;2024-03-23T04:20:10;46.13;;;27.15;;
62401;SDS011;48440;51.224;22.506;2024-03-23T04:22:38;47.03;;;27.48;;
62401;SDS011;48440;51.224;22.506;2024-03-23T04:25:04;47.50;;;26.75;;
62401;SDS011;48440;51.224;22.506;2024-03-23T04:27:34;46.65;;;28.23;;
62401;SDS011;48440;51.224;22.506;2024-03-23T04:30:01;45.47;;;26.77;;
62401;SDS011;48440;51.224;22.506;2024-03-23T04:32:28;46.25;;;26.75;;
62401;SDS011;48440;51.224;22.506;2024-03-23T04:34:54;49.15;;;27.05;;
62401;SDS011;48440;51.224;22.506;2024-03-23T04:37:20;44.72;;;27.55;;
62401;SDS011;48440;51.224;22.506;2024-03-23T04:39:46;45.22;;;27.08;;
62401;SDS011;48440;51.224;22.506;2024-03-23T04:42:11;46.10;;;27.85;;
62401;SDS011;48440;51.224;22.506;2024-03-23T04:44:37;46.05;;;27.05;;
62401;SDS011;48440;51.224;22.506;2024-03-23T04:47:02;42.88;;;27.67;;
62401;SDS011;48440;51.224;22.506;2024-03-23T04:49:28;46.85;;;26.98;;
62401;SDS011;48440;51.224;22.506;2024-03-23T04:51:53;43.90;;;27.10;;
62401;SDS011;48440;51.224;22.506;2024-03-23T04:54:19;48.50;;;27.17;;
62401;SDS011;48440;51.224;22.506;2024-03-23T04:56:45;46.38;;;27.23;;
62401;SDS011;48440;51.224;22.506;2024-03-23T04:59:11;49.25;;;27.85;;
62401;SDS011;48440;51.224;22.506;2024-03-23T05:01:36;47.03;;;27.85;;
62401;SDS011;48440;51.224;22.506;2024-03-23T05:04:03;48.28;;;28.13;;
62401;SDS011;48440;51.224;22.506;2024-03-23T05:06:30;43.05;;;27.75;;
62401;SDS011;48440;51.224;22.506;2024-03-23T05:08:56;48.63;;;29.27;;
62401;SDS011;48440;51.224;22.506;2024-03-23T05:11:21;50.90;;;28.48;;
62401;SDS011;48440;51.224;22.506;2024-03-23T05:13:46;48.35;;;27.15;;
62401;SDS011;48440;51.224;22.506;2024-03-23T05:16:12;53.15;;;28.52;;
62401;SDS011;48440;51.224;22.506;2024-03-23T05:18:37;51.72;;;28.83;;
62401;SDS011;48440;51.224;22.506;2024-03-23T05:21:03;47.72;;;28.55;;
62401;SDS011;48440;51.224;22.506;2024-03-23T05:23:29;46.85;;;28.27;;
62401;SDS011;48440;51.224;22.506;2024-03-23T05:25:55;46.25;;;27.85;;
62401;SDS011;48440;51.224;22.506;2024-03-23T05:28:21;45.63;;;27.80;;
62401;SDS011;48440;51.224;22.506;2024-03-23T05:30:53;46.30;;;27.70;;
62401;SDS011;48440;51.224;22.506;2024-03-23T05:33:19;45.58;;;27.38;;
62401;SDS011;48440;51.224;22.506;2024-03-23T05:35:46;44.75;;;26.40;;
62401;SDS011;48440;51.224;22.506;2024-03-23T05:38:12;47.28;;;26.45;;
62401;SDS011;48440;51.224;22.506;2024-03-23T05:40:39;44.00;;;25.95;;
62401;SDS011;48440;51.224;22.506;2024-03-23T05:43:05;43.72;;;26.23;;
62401;SDS011;48440;51.224;22.506;2024-03-23T05:45:31;48.03;;;27.20;;
62401;SDS011;48440;51.224;22.506;2024-03-23T05:47:57;46.22;;;26.33;;
62401;SDS011;48440;51.224;22.506;2024-03-23T05:50:23;43.47;;;25.73;;
62401;SDS011;48440;51.224;22.506;2024-03-23T05:52:49;45.78;;;26.73;;
62401;SDS011;48440;51.224;22.506;2024-03-23T05:55:15;42.00;;;23.80;;
62401;SDS011;48440;51.224;22.506;2024-03-23T05:57:40;44.70;;;25.55;;
62401;SDS011;48440;51.224;22.506;2024-03-23T06:00:06;40.45;;;25.08;;
62401;SDS011;48440;51.224;22.506;2024-03-23T06:02:40;42.80;;;25.88;;
62401;SDS011;48440;51.224;22.506;2024-03-23T06:05:12;41.00;;;25.83;;
62401;SDS011;48440;51.224;22.506;2024-03-23T06:07:37;44.10;;;24.98;;
62401;SDS011;48440;51.224;22.506;2024-03-23T06:10:03;42.80;;;25.42;;
62401;SDS011;48440;51.224;22.506;2024-03-23T06:12:30;41.17;;;24.48;;
62401;SDS011;48440;51.224;22.506;2024-03-23T06:14:55;36.47;;;23.48;;
62401;SDS011;48440;51.224;22.506;2024-03-23T06:17:24;39.90;;;24.38;;
62401;SDS011;48440;51.224;22.506;2024-03-23T06:19:49;40.65;;;24.17;;
62401;SDS011;48440;51.224;22.506;2024-03-23T06:22:15;41.38;;;25.00;;
62401;SDS011;48440;51.224;22.506;2024-03-23T06:24:40;41.03;;;24.27;;
62401;SDS011;48440;51.224;22.506;2024-03-23T06:27:06;37.08;;;24.23;;
62401;SDS011;48440;51.224;22.506;2024-03-23T06:29:32;40.83;;;24.13;;
62401;SDS011;48440;51.224;22.506;2024-03-23T06:31:57;44.13;;;24.40;;
62401;SDS011;48440;51.224;22.506;2024-03-23T06:34:23;42.17;;;24.25;;
62401;SDS011;48440;51.224;22.506;2024-03-23T06:36:51;41.20;;;25.55;;
62401;SDS011;48440;51.224;22.506;2024-03-23T06:39:17;43.05;;;24.75;;
62401;SDS011;48440;51.224;22.506;2024-03-23T06:41:42;45.22;;;25.40;;
62401;SDS011;48440;51.224;22.506;2024-03-23T06:44:16;41.22;;;24.15;;
62401;SDS011;48440;51.224;22.506;2024-03-23T06:46:42;40.70;;;23.92;;
62401;SDS011;48440;51.224;22.506;2024-03-23T06:49:08;37.20;;;22.60;;
62401;SDS011;48440;51.224;22.506;2024-03-23T06:51:33;38.20;;;22.70;;
62401;SDS011;48440;51.224;22.506;2024-03-23T06:53:59;38.15;;;22.60;;
62401;SDS011;48440;51.224;22.506;2024-03-23T06:56:24;34.25;;;20.85;;
62401;SDS011;48440;51.224;22.506;2024-03-23T06:58:50;33.53;;;21.35;;
62401;SDS011;48440;51.224;22.506;2024-03-23T07:01:15;33.33;;;20.38;;
62401;SDS011;48440;51.224;22.506;2024-03-23T07:03:47;36.13;;;20.30;;
62401;SDS011;48440;51.224;22.506;2024-03-23T07:06:13;30.60;;;19.35;;
62401;SDS011;48440;51.224;22.506;2024-03-23T07:08:38;27.45;;;17.38;;
62401;SDS011;48440;51.224;22.506;2024-03-23T07:11:04;26.27;;;16.13;;
62401;SDS011;48440;51.224;22.506;2024-03-23T07:13:30;29.10;;;17.60;;
62401;SDS011;48440;51.224;22.506;2024-03-23T07:15:55;25.70;;;15.88;;
62401;SDS011;48440;51.224;22.506;2024-03-23T07:18:22;32.92;;;18.25;;
62401;SDS011;48440;51.224;22.506;2024-03-23T07:20:57;29.25;;;18.20;;
62401;SDS011;48440;51.224;22.506;2024-03-23T07:23:23;28.65;;;17.88;;
62401;SDS011;48440;51.224;22.506;2024-03-23T07:25:56;29.50;;;17.27;;
62401;SDS011;48440;51.224;22.506;2024-03-23T07:28:22;29.17;;;17.48;;
62401;SDS011;48440;51.224;22.506;2024-03-23T07:30:48;32.53;;;18.73;;
62401;SDS011;48440;51.224;22.506;2024-03-23T07:33:13;30.85;;;18.40;;
62401;SDS011;48440;51.224;22.506;2024-03-23T07:35:38;26.33;;;17.02;;
62401;SDS011;48440;51.224;22.506;2024-03-23T07:38:04;27.05;;;16.45;;
62401;SDS011;48440;51.224;22.506;2024-03-23T07:40:30;27.40;;;17.00;;
62401;SDS011;48440;51.224;22.506;2024-03-23T07:42:56;29.83;;;17.92;;
62401;SDS011;48440;51.224;22.506;2024-03-23T07:45:22;29.08;;;16.30;;
62401;SDS011;48440;51.224;22.506;2024-03-23T07:47:47;33.90;;;17.17;;
62401;SDS011;48440;51.224;22.506;2024-03-23T07:50:13;27.75;;;16.73;;
62401;SDS011;48440;51.224;22.506;2024-03-23T07:52:39;26.20;;;15.43;;
62401;SDS011;48440;51.224;22.506;2024-03-23T07:55:05;26.95;;;16.17;;
62401;SDS011;48440;51.224;22.506;2024-03-23T07:57:30;28.63;;;15.80;;
62401;SDS011;48440;51.224;22.506;2024-03-23T07:59:56;26.73;;;16.13;;
62401;SDS011;48440;51.224;22.506;2024-03-23T08:02:22;26.67;;;16.58;;
62401;SDS011;48440;51.224;22.506;2024-03-23T08:04:47;25.55;;;15.68;;
62401;SDS011;48440;51.224;22.506;2024-03-23T08:07:13;26.15;;;15.73;;
62401;SDS011;48440;51.224;22.506;2024-03-23T08:09:39;30.88;;;16.70;;
62401;SDS011;48440;51.224;22.506;2024-03-23T08:12:04;25.88;;;14.68;;
62401;SDS011;48440;51.224;22.506;2024-03-23T08:14:30;25.60;;;15.68;;
62401;SDS011;48440;51.224;22.506;2024-03-23T08:16:55;25.75;;;15.82;;
62401;SDS011;48440;51.224;22.506;2024-03-23T08:19:21;27.27;;;15.82;;
62401;SDS011;48440;51.224;22.506;2024-03-23T08:21:47;25.48;;;15.35;;
62401;SDS011;48440;51.224;22.506;2024-03-23T08:24:12;26.83;;;16.73;;
62401;SDS011;48440;51.224;22.506;2024-03-23T08:26:38;25.30;;;15.88;;
62401;SDS011;48440;51.224;22.506;2024-03-23T08:29:04;26.17;;;15.70;;
62401;SDS011;48440;51.224;22.506;2024-03-23T08:31:30;25.65;;;15.18;;
62401;SDS011;48440;51.224;22.506;2024-03-23T08:33:55;26.05;;;16.75;;
62401;SDS011;48440;51.224;22.506;2024-03-23T08:36:21;30.98;;;16.35;;
62401;SDS011;48440;51.224;22.506;2024-03-23T08:38:46;30.23;;;16.83;;
62401;SDS011;48440;51.224;22.506;2024-03-23T08:41:12;24.63;;;16.13;;
62401;SDS011;48440;51.224;22.506;2024-03-23T08:43:38;25.70;;;16.08;;
62401;SDS011;48440;51.224;22.506;2024-03-23T08:46:09;23.73;;;15.30;;
62401;SDS011;48440;51.224;22.506;2024-03-23T08:48:36;26.35;;;16.90;;
62401;SDS011;48440;51.224;22.506;2024-03-23T08:51:04;32.25;;;17.73;;
62401;SDS011;48440;51.224;22.506;2024-03-23T08:53:31;27.05;;;16.85;;
62401;SDS011;48440;51.224;22.506;2024-03-23T08:55:57;27.75;;;16.70;;
62401;SDS011;48440;51.224;22.506;2024-03-23T08:58:24;26.92;;;17.73;;
62401;SDS011;48440;51.224;22.506;2024-03-23T09:00:51;30.52;;;17.60;;
62401;SDS011;48440;51.224;22.506;2024-03-23T09:03:17;26.58;;;16.88;;
62401;SDS011;48440;51.224;22.506;2024-03-23T09:05:43;27.15;;;16.42;;
62401;SDS011;48440;51.224;22.506;2024-03-23T09:08:08;28.00;;;16.35;;
62401;SDS011;48440;51.224;22.506;2024-03-23T09:10:38;25.60;;;16.05;;
62401;SDS011;48440;51.224;22.506;2024-03-23T09:13:04;23.98;;;15.90;;
62401;SDS011;48440;51.224;22.506;2024-03-23T09:15:30;28.33;;;15.43;;
62401;SDS011;48440;51.224;22.506;2024-03-23T09:17:56;25.63;;;15.23;;
62401;SDS011;48440;51.224;22.506;2024-03-23T09:20:24;23.80;;;14.63;;
62401;SDS011;48440;51.224;22.506;2024-03-23T09:22:50;23.23;;;14.50;;
62401;SDS011;48440;51.224;22.506;2024-03-23T09:25:15;26.17;;;14.73;;
62401;SDS011;48440;51.224;22.506;2024-03-23T09:27:41;24.15;;;14.45;;
62401;SDS011;48440;51.224;22.506;2024-03-23T09:30:07;23.50;;;13.68;;
62401;SDS011;48440;51.224;22.506;2024-03-23T09:32:33;21.23;;;13.57;;
62401;SDS011;48440;51.224;22.506;2024-03-23T09:34:58;18.77;;;11.90;;
62401;SDS011;48440;51.224;22.506;2024-03-23T09:37:24;21.92;;;14.05;;
62401;SDS011;48440;51.224;22.506;2024-03-23T09:39:49;21.02;;;13.07;;
62401;SDS011;48440;51.224;22.506;2024-03-23T09:42:15;22.15;;;13.23;;
62401;SDS011;48440;51.224;22.506;2024-03-23T09:44:41;25.42;;;13.75;;
62401;SDS011;48440;51.224;22.506;2024-03-23T09:47:07;20.17;;;12.98;;
62401;SDS011;48440;51.224;22.506;2024-03-23T09:49:33;20.85;;;13.45;;
62401;SDS011;48440;51.224;22.506;2024-03-23T09:52:01;24.80;;;14.52;;
62401;SDS011;48440;51.224;22.506;2024-03-23T09:54:28;22.10;;;13.10;;
62401;SDS011;48440;51.224;22.506;2024-03-23T09:56:53;21.65;;;14.32;;
62401;SDS011;48440;51.224;22.506;2024-03-23T09:59:19;21.08;;;13.25;;
62401;SDS011;48440;51.224;22.506;2024-03-23T10:01:44;19.42;;;13.32;;
62401;SDS011;48440;51.224;22.506;2024-03-23T10:04:10;21.67;;;13.68;;
62401;SDS011;48440;51.224;22.506;2024-03-23T10:06:35;23.75;;;13.55;;
62401;SDS011;48440;51.224;22.506;2024-03-23T10:09:01;23.35;;;14.05;;
62401;SDS011;48440;51.224;22.506;2024-03-23T10:11:27;25.92;;;15.35;;
62401;SDS011;48440;51.224;22.506;2024-03-23T10:13:54;26.15;;;14.65;;
62401;SDS011;48440;51.224;22.506;2024-03-23T10:16:22;22.83;;;14.05;;
62401;SDS011;48440;51.224;22.506;2024-03-23T10:18:48;24.55;;;14.57;;
62401;SDS011;48440;51.224;22.506;2024-03-23T10:21:15;25.50;;;14.50;;
62401;SDS011;48440;51.224;22.506;2024-03-23T10:23:42;22.05;;;13.15;;
62401;SDS011;48440;51.224;22.506;2024-03-23T10:26:12;21.42;;;13.30;;
62401;SDS011;48440;51.224;22.506;2024-03-23T10:31:28;22.77;;;13.55;;
62401;SDS011;48440;51.224;22.506;2024-03-23T10:33:55;21.75;;;12.52;;
62401;SDS011;48440;51.224;22.506;2024-03-23T10:36:21;25.42;;;15.07;;
62401;SDS011;48440;51.224;22.506;2024-03-23T10:38:47;20.17;;;12.75;;
62401;SDS011;48440;51.224;22.506;2024-03-23T10:41:14;21.13;;;12.95;;
62401;SDS011;48440;51.224;22.506;2024-03-23T10:43:40;20.80;;;12.75;;
62401;SDS011;48440;51.224;22.506;2024-03-23T10:46:07;21.58;;;12.38;;
62401;SDS011;48440;51.224;22.506;2024-03-23T10:48:34;17.38;;;12.00;;
62401;SDS011;48440;51.224;22.506;2024-03-23T10:51:00;20.77;;;12.57;;
62401;SDS011;48440;51.224;22.506;2024-03-23T10:53:26;19.92;;;12.30;;
62401;SDS011;48440;51.224;22.506;2024-03-23T10:55:54;19.45;;;12.10;;
62401;SDS011;48440;51.224;22.506;2024-03-23T10:58:26;17.17;;;11.70;;
62401;SDS011;48440;51.224;22.506;2024-03-23T11:00:55;17.23;;;11.57;;
62401;SDS011;48440;51.224;22.506;2024-03-23T11:03:36;20.02;;;11.90;;
62401;SDS011;48440;51.224;22.506;2024-03-23T11:06:04;17.73;;;11.93;;
62401;SDS011;48440;51.224;22.506;2024-03-23T11:08:31;20.92;;;12.25;;
62401;SDS011;48440;51.224;22.506;2024-03-23T11:13:43;20.33;;;12.60;;
62401;SDS011;48440;51.224;22.506;2024-03-23T11:18:55;17.40;;;12.10;;
62401;SDS011;48440;51.224;22.506;2024-03-23T11:22:00;17.27;;;11.50;;
62401;SDS011;48440;51.224;22.506;2024-03-23T11:24:26;17.77;;;11.85;;
62401;SDS011;48440;51.224;22.506;2024-03-23T11:26:51;18.10;;;12.02;;
62401;SDS011;48440;51.224;22.506;2024-03-23T11:29:17;19.30;;;11.88;;
62401;SDS011;48440;51.224;22.506;2024-03-23T11:31:47;26.90;;;12.60;;
62401;SDS011;48440;51.224;22.506;2024-03-23T11:34:14;21.17;;;12.30;;
62401;SDS011;48440;51.224;22.506;2024-03-23T11:36:41;17.85;;;12.10;;
62401;SDS011;48440;51.224;22.506;2024-03-23T11:39:13;17.48;;;11.77;;
62401;SDS011;48440;51.224;22.506;2024-03-23T11:41:53;19.23;;;12.32;;
62401;SDS011;48440;51.224;22.506;2024-03-23T11:44:21;16.42;;;11.35;;
62401;SDS011;48440;51.224;22.506;2024-03-23T11:46:50;17.70;;;11.48;;
62401;SDS011;48440;51.224;22.506;2024-03-23T11:51:52;22.65;;;11.43;;
62401;SDS011;48440;51.224;22.506;2024-03-23T11:54:23;16.52;;;10.68;;
62401;SDS011;48440;51.224;22.506;2024-03-23T11:59:35;15.73;;;10.40;;
62401;SDS011;48440;51.224;22.506;2024-03-23T12:02:08;16.65;;;9.80;;
62401;SDS011;48440;51.224;22.506;2024-03-23T12:04:35;15.57;;;10.35;;
62401;SDS011;48440;51.224;22.506;2024-03-23T12:07:17;16.00;;;10.35;;
62401;SDS011;48440;51.224;22.506;2024-03-23T12:09:44;18.48;;;10.18;;
62401;SDS011;48440;51.224;22.506;2024-03-23T12:12:16;16.58;;;10.48;;
62401;SDS011;48440;51.224;22.506;2024-03-23T12:15:00;16.08;;;10.10;;
62401;SDS011;48440;51.224;22.506;2024-03-23T12:17:27;14.65;;;9.90;;
62401;SDS011;48440;51.224;22.506;2024-03-23T12:19:53;14.90;;;10.10;;
62401;SDS011;48440;51.224;22.506;2024-03-23T12:22:21;15.23;;;9.38;;
62401;SDS011;48440;51.224;22.506;2024-03-23T12:24:50;16.88;;;10.48;;
62401;SDS011;48440;51.224;22.506;2024-03-23T12:27:16;19.58;;;10.57;;
62401;SDS011;48440;51.224;22.506;2024-03-23T12:29:42;15.43;;;9.98;;
62401;SDS011;48440;51.224;22.506;2024-03-23T12:32:12;14.02;;;9.45;;
62401;SDS011;48440;51.224;22.506;2024-03-23T12:34:38;16.20;;;10.45;;
62401;SDS011;48440;51.224;22.506;2024-03-23T12:37:04;15.70;;;10.40;;
62401;SDS011;48440;51.224;22.506;2024-03-23T12:39:31;14.80;;;9.98;;
62401;SDS011;48440;51.224;22.506;2024-03-23T12:41:57;16.02;;;10.05;;
62401;SDS011;48440;51.224;22.506;2024-03-23T12:44:22;16.00;;;10.40;;
62401;SDS011;48440;51.224;22.506;2024-03-23T12:46:48;17.50;;;10.82;;
62401;SDS011;48440;51.224;22.506;2024-03-23T12:49:13;17.25;;;10.23;;
62401;SDS011;48440;51.224;22.506;2024-03-23T12:51:39;18.05;;;12.18;;
62401;SDS011;48440;51.224;22.506;2024-03-23T12:54:22;16.52;;;10.85;;
62401;SDS011;48440;51.224;22.506;2024-03-23T12:56:49;16.85;;;10.18;;
62401;SDS011;48440;51.224;22.506;2024-03-23T12:59:14;16.23;;;11.38;;
62401;SDS011;48440;51.224;22.506;2024-03-23T13:01:41;18.33;;;11.18;;
62401;SDS011;48440;51.224;22.506;2024-03-23T13:04:06;16.02;;;10.80;;
62401;SDS011;48440;51.224;22.506;2024-03-23T13:06:32;17.27;;;10.70;;
62401;SDS011;48440;51.224;22.506;2024-03-23T13:09:00;18.55;;;12.18;;
62401;SDS011;48440;51.224;22.506;2024-03-23T13:11:26;14.70;;;9.88;;
62401;SDS011;48440;51.224;22.506;2024-03-23T13:13:52;15.55;;;9.77;;
62401;SDS011;48440;51.224;22.506;2024-03-23T13:16:17;13.57;;;9.18;;
62401;SDS011;48440;51.224;22.506;2024-03-23T13:18:43;11.85;;;8.93;;
62401;SDS011;48440;51.224;22.506;2024-03-23T13:21:08;21.48;;;9.90;;
62401;SDS011;48440;51.224;22.506;2024-03-23T13:23:34;18.63;;;10.98;;
62401;SDS011;48440;51.224;22.506;2024-03-23T13:26:01;16.90;;;9.60;;
62401;SDS011;48440;51.224;22.506;2024-03-23T13:28:26;13.05;;;9.43;;
62401;SDS011;48440;51.224;22.506;2024-03-23T13:30:55;15.13;;;9.40;;
62401;SDS011;48440;51.224;22.506;2024-03-23T13:33:22;13.98;;;9.30;;
62401;SDS011;48440;51.224;22.506;2024-03-23T13:35:49;16.05;;;9.23;;
62401;SDS011;48440;51.224;22.506;2024-03-23T13:38:15;12.27;;;9.00;;
62401;SDS011;48440;51.224;22.506;2024-03-23T13:40:48;14.20;;;9.43;;
62401;SDS011;48440;51.224;22.506;2024-03-23T13:43:18;14.20;;;9.55;;
62401;SDS011;48440;51.224;22.506;2024-03-23T13:45:43;13.65;;;9.60;;
62401;SDS011;48440;51.224;22.506;2024-03-23T13:48:09;14.70;;;9.23;;
62401;SDS011;48440;51.224;22.506;2024-03-23T13:50:35;14.40;;;9.00;;
62401;SDS011;48440;51.224;22.506;2024-03-23T13:53:01;16.05;;;9.23;;
62401;SDS011;48440;51.224;22.506;2024-03-23T13:55:26;14.82;;;9.13;;
62401;SDS011;48440;51.224;22.506;2024-03-23T13:57:52;11.90;;;8.93;;
62401;SDS011;48440;51.224;22.506;2024-03-23T14:00:17;14.57;;;10.63;;
62401;SDS011;48440;51.224;22.506;2024-03-23T14:02:43;13.70;;;9.20;;
62401;SDS011;48440;51.224;22.506;2024-03-23T14:05:09;14.00;;;9.02;;
62401;SDS011;48440;51.224;22.506;2024-03-23T14:07:36;12.48;;;9.07;;
62401;SDS011;48440;51.224;22.506;2024-03-23T14:10:05;11.98;;;8.38;;
62401;SDS011;48440;51.224;22.506;2024-03-23T14:12:31;12.50;;;8.88;;
62401;SDS011;48440;51.224;22.506;2024-03-23T14:14:57;12.18;;;8.40;;
62401;SDS011;48440;51.224;22.506;2024-03-23T14:17:23;12.93;;;8.32;;
62401;SDS011;48440;51.224;22.506;2024-03-23T14:19:48;12.32;;;8.32;;
62401;SDS011;48440;51.224;22.506;2024-03-23T14:22:15;11.75;;;8.00;;
62401;SDS011;48440;51.224;22.506;2024-03-23T14:24:44;13.27;;;8.48;;
62401;SDS011;48440;51.224;22.506;2024-03-23T14:27:10;14.43;;;8.65;;
62401;SDS011;48440;51.224;22.506;2024-03-23T14:29:35;12.38;;;8.85;;
62401;SDS011;48440;51.224;22.506;2024-03-23T14:32:01;13.43;;;8.73;;
62401;SDS011;48440;51.224;22.506;2024-03-23T14:34:26;11.45;;;8.63;;
62401;SDS011;48440;51.224;22.506;2024-03-23T14:36:55;13.85;;;9.25;;
62401;SDS011;48440;51.224;22.506;2024-03-23T14:39:23;13.85;;;8.75;;
62401;SDS011;48440;51.224;22.506;2024-03-23T14:41:52;10.95;;;8.07;;
62401;SDS011;48440;51.224;22.506;2024-03-23T14:44:17;11.10;;;7.88;;
62401;SDS011;48440;51.224;22.506;2024-03-23T14:46:43;13.02;;;7.97;;
62401;SDS011;48440;51.224;22.506;2024-03-23T14:49:09;12.55;;;8.45;;
62401;SDS011;48440;51.224;22.506;2024-03-23T14:51:41;11.05;;;8.38;;
62401;SDS011;48440;51.224;22.506;2024-03-23T14:54:07;14.32;;;8.23;;
62401;SDS011;48440;51.224;22.506;2024-03-23T14:56:32;13.98;;;8.50;;
62401;SDS011;48440;51.224;22.506;2024-03-23T14:58:59;14.18;;;8.15;;
62401;SDS011;48440;51.224;22.506;2024-03-23T15:01:25;12.65;;;8.60;;
62401;SDS011;48440;51.224;22.506;2024-03-23T15:03:50;11.80;;;8.18;;
62401;SDS011;48440;51.224;22.506;2024-03-23T15:06:18;13.40;;;8.13;;
62401;SDS011;48440;51.224;22.506;2024-03-23T15:08:44;11.55;;;8.23;;
62401;SDS011;48440;51.224;22.506;2024-03-23T15:11:10;12.48;;;8.50;;
62401;SDS011;48440;51.224;22.506;2024-03-23T15:13:36;12.38;;;8.07;;
62401;SDS011;48440;51.224;22.506;2024-03-23T15:16:05;14.23;;;8.57;;